createdAt,value
2019-05-01T00:01:29.314Z,36.80
2019-05-01T00:04:04.410Z,36.90
2019-05-01T00:06:36.703Z,36.17
2019-05-01T00:09:06.538Z,37.28
2019-05-01T00:11:33.794Z,37.38
2019-05-01T00:14:01.509Z,38.17
2019-05-01T00:16:29.390Z,37.75
2019-05-01T00:18:56.558Z,38.42
2019-05-01T00:21:23.608Z,37.85
2019-05-01T00:23:52.105Z,37.80
2019-05-01T00:26:19.439Z,38.50
2019-05-01T00:28:46.632Z,39.48
2019-05-01T00:31:13.933Z,36.13
2019-05-01T00:33:41.069Z,36.95
2019-05-01T00:36:11.337Z,36.50
2019-05-01T00:38:38.445Z,37.37
2019-05-01T00:41:05.593Z,38.23
2019-05-01T00:43:32.581Z,36.35
2019-05-01T00:46:00.693Z,36.35
2019-05-01T00:48:27.369Z,36.68
2019-05-01T00:50:54.567Z,37.38
2019-05-01T00:53:30.575Z,37.23
2019-05-01T00:56:00.646Z,36.75
2019-05-01T00:58:35.343Z,36.00
2019-05-01T01:01:06.968Z,36.55
2019-05-01T01:03:34.281Z,37.58
2019-05-01T01:06:01.477Z,37.60
2019-05-01T01:08:28.348Z,37.13
2019-05-01T01:10:57.366Z,36.55
2019-05-01T01:13:24.366Z,36.58
2019-05-01T01:15:51.540Z,36.65
2019-05-01T01:18:18.456Z,37.20
2019-05-01T01:20:45.700Z,36.58
2019-05-01T01:23:14.869Z,37.70
2019-05-01T01:25:41.883Z,35.15
2019-05-01T01:28:09.423Z,34.85
2019-05-01T01:30:36.809Z,36.80
2019-05-01T01:33:04.126Z,35.83
2019-05-01T01:35:32.118Z,36.48
2019-05-01T01:37:59.338Z,35.13
2019-05-01T01:40:26.606Z,35.35
2019-05-01T01:42:56.442Z,36.23
2019-05-01T01:45:26.949Z,35.08
2019-05-01T01:48:10.571Z,34.53
2019-05-01T01:50:41.094Z,36.63
2019-05-01T01:53:09.153Z,35.08
2019-05-01T01:55:37.651Z,34.88
2019-05-01T01:58:05.730Z,34.92
2019-05-01T02:00:51.381Z,34.23
2019-05-01T02:03:21.947Z,36.90
2019-05-01T02:05:48.913Z,35.90
2019-05-01T02:08:16.379Z,36.15
2019-05-01T02:10:43.561Z,35.48
2019-05-01T02:13:11.171Z,34.90
2019-05-01T02:15:38.205Z,36.17
2019-05-01T02:18:05.307Z,38.08
2019-05-01T02:20:32.590Z,37.17
2019-05-01T02:22:59.581Z,37.95
2019-05-01T02:25:29.147Z,36.53
2019-05-01T02:28:15.075Z,37.48
2019-05-01T02:30:43.973Z,36.33
2019-05-01T02:33:11.379Z,36.83
2019-05-01T02:35:38.777Z,36.15
2019-05-01T02:38:06.325Z,34.88
2019-05-01T02:40:36.949Z,34.98
2019-05-01T02:43:05.420Z,36.13
2019-05-01T02:45:35.999Z,35.40
2019-05-01T02:48:03.906Z,34.92
2019-05-01T02:50:39.063Z,37.17
2019-05-01T02:53:06.509Z,34.10
2019-05-01T02:55:36.239Z,36.20
2019-05-01T02:58:03.611Z,36.77
2019-05-01T03:00:30.662Z,37.08
2019-05-01T03:02:59.689Z,34.95
2019-05-01T03:05:29.045Z,33.02
2019-05-01T03:07:56.803Z,32.48
2019-05-01T03:10:45.899Z,33.13
2019-05-01T03:13:13.539Z,33.75
2019-05-01T03:15:40.584Z,31.45
2019-05-01T03:18:18.890Z,32.03
2019-05-01T03:20:48.490Z,33.33
2019-05-01T03:23:30.918Z,33.83
2019-05-01T03:25:58.173Z,34.08
2019-05-01T03:28:25.703Z,34.05
2019-05-01T03:30:53.241Z,32.20
2019-05-01T03:33:21.056Z,33.33
2019-05-01T03:35:48.412Z,32.15
2019-05-01T03:38:16.662Z,31.68
2019-05-01T03:40:43.991Z,33.35
2019-05-01T03:43:12.096Z,33.88
2019-05-01T03:45:39.876Z,33.28
2019-05-01T03:48:07.242Z,33.20
2019-05-01T03:50:34.684Z,32.05
2019-05-01T03:53:01.838Z,33.35
2019-05-01T03:55:29.599Z,32.53
2019-05-01T03:57:57.838Z,32.80
2019-05-01T04:00:33.496Z,33.78
2019-05-01T04:03:18.391Z,32.98
2019-05-01T04:05:45.287Z,34.40
2019-05-01T04:08:12.382Z,33.83
2019-05-01T04:10:39.460Z,32.80
2019-05-01T04:13:06.554Z,33.20
2019-05-01T04:15:34.154Z,33.40
2019-05-01T04:18:03.016Z,31.12
2019-05-01T04:20:30.475Z,31.73
2019-05-01T04:22:58.151Z,31.90
2019-05-01T04:25:25.166Z,31.40
2019-05-01T04:27:58.719Z,32.58
2019-05-01T04:30:29.328Z,33.88
2019-05-01T04:32:58.807Z,36.77
2019-05-01T04:35:28.442Z,38.20
2019-05-01T04:37:57.027Z,39.67
2019-05-01T04:40:25.512Z,39.75
2019-05-01T04:42:52.524Z,34.73
2019-05-01T04:45:20.276Z,34.30
2019-05-01T04:47:48.800Z,33.70
2019-05-01T04:50:16.403Z,32.25
2019-05-01T04:52:43.734Z,30.68
2019-05-01T04:55:10.557Z,31.60
2019-05-01T04:57:38.184Z,32.70
2019-05-01T05:00:06.188Z,34.25
2019-05-01T05:02:36.270Z,32.80
2019-05-01T05:05:09.388Z,30.80
2019-05-01T05:07:50.794Z,30.25
2019-05-01T05:13:04.160Z,29.72
2019-05-01T05:15:53.218Z,28.38
2019-05-01T05:18:20.408Z,29.85
2019-05-01T05:20:48.684Z,28.98
2019-05-01T05:23:15.869Z,29.27
2019-05-01T05:25:43.398Z,27.50
2019-05-01T05:28:11.611Z,28.95
2019-05-01T05:30:39.967Z,30.23
2019-05-01T05:33:18.652Z,30.02
2019-05-01T05:35:46.060Z,30.80
2019-05-01T05:38:28.128Z,32.23
2019-05-01T05:41:00.341Z,31.73
2019-05-01T05:43:28.601Z,31.40
2019-05-01T05:45:55.650Z,31.50
2019-05-01T05:48:23.002Z,32.10
2019-05-01T05:51:09.985Z,34.48
2019-05-01T05:53:40.901Z,33.90
2019-05-01T05:56:13.301Z,32.65
2019-05-01T05:58:45.017Z,34.18
2019-05-01T06:01:17.358Z,35.30
2019-05-01T06:03:56.182Z,33.80
2019-05-01T06:06:34.631Z,33.63
2019-05-01T06:09:09.021Z,33.63
2019-05-01T06:11:46.178Z,35.08
2019-05-01T06:14:19.460Z,32.53
2019-05-01T06:16:54.622Z,35.03
2019-05-01T06:19:37.348Z,36.50
2019-05-01T06:22:18.176Z,35.05
2019-05-01T06:24:52.922Z,34.55
2019-05-01T06:27:20.315Z,35.50
2019-05-01T06:29:47.422Z,33.85
2019-05-01T06:32:14.607Z,34.85
2019-05-01T06:34:41.986Z,34.45
2019-05-01T06:37:08.930Z,39.25
2019-05-01T06:39:36.772Z,34.15
2019-05-01T06:42:09.900Z,35.43
2019-05-01T06:44:39.092Z,36.50
2019-05-01T06:47:09.947Z,36.42
2019-05-01T06:49:40.265Z,38.40
2019-05-01T06:52:09.075Z,36.37
2019-05-01T06:54:36.288Z,35.88
2019-05-01T06:57:04.350Z,34.43
2019-05-01T06:59:34.883Z,35.90
2019-05-01T07:02:03.369Z,35.00
2019-05-01T07:04:32.316Z,35.43
2019-05-01T07:07:06.903Z,36.75
2019-05-01T07:09:32.512Z,38.08
2019-05-01T07:12:03.883Z,35.68
2019-05-01T07:14:31.401Z,39.08
2019-05-01T07:16:59.214Z,43.52
2019-05-01T07:19:45.820Z,36.90
2019-05-01T07:22:13.272Z,37.78
2019-05-01T07:24:41.394Z,39.18
2019-05-01T07:27:10.416Z,37.95
2019-05-01T07:29:39.926Z,38.17
2019-05-01T07:32:08.158Z,36.95
2019-05-01T07:34:35.283Z,49.53
2019-05-01T07:37:03.479Z,38.33
2019-05-01T07:39:32.704Z,38.53
2019-05-01T07:42:18.532Z,42.95
2019-05-01T07:44:47.849Z,38.55
2019-05-01T07:47:17.479Z,50.08
2019-05-01T07:49:52.712Z,39.60
2019-05-01T07:52:21.583Z,38.88
2019-05-01T07:54:48.944Z,38.10
2019-05-01T07:57:16.656Z,36.53
2019-05-01T07:59:44.373Z,37.08
2019-05-01T08:02:13.358Z,38.75
2019-05-01T08:04:42.663Z,39.05
2019-05-01T08:07:09.917Z,41.48
2019-05-01T08:09:36.957Z,41.33
2019-05-01T08:12:09.662Z,38.73
2019-05-01T08:14:36.591Z,38.63
2019-05-01T08:17:03.509Z,41.10
2019-05-01T08:19:34.856Z,40.15
2019-05-01T08:22:03.079Z,41.20
2019-05-01T08:24:30.016Z,41.35
2019-05-01T08:26:57.377Z,41.08
2019-05-01T08:29:26.156Z,44.42
2019-05-01T08:32:04.699Z,44.65
2019-05-01T08:34:48.228Z,45.60
2019-05-01T08:37:06.848Z,41.70
2019-05-01T08:39:33.540Z,40.08
2019-05-01T08:42:03.125Z,41.02
2019-05-01T08:44:48.129Z,46.00
2019-05-01T08:47:20.855Z,42.75
2019-05-01T08:49:50.866Z,46.80
2019-05-01T08:52:18.098Z,47.17
2019-05-01T08:54:46.795Z,42.80
2019-05-01T08:57:13.963Z,41.53
2019-05-01T08:59:40.800Z,40.20
2019-05-01T09:02:09.859Z,43.90
2019-05-01T09:04:41.808Z,42.53
2019-05-01T09:07:08.796Z,45.67
2019-05-01T09:09:39.907Z,51.00
2019-05-01T09:12:06.815Z,50.38
2019-05-01T09:14:37.510Z,52.53
2019-05-01T09:17:06.196Z,53.55
2019-05-01T09:19:52.709Z,51.42
2019-05-01T09:22:23.451Z,50.78
2019-05-01T09:24:50.193Z,54.00
2019-05-01T09:27:31.245Z,51.88
2019-05-01T09:30:16.645Z,51.23
2019-05-01T09:32:45.947Z,51.15
2019-05-01T09:35:19.812Z,50.88
2019-05-01T09:37:46.901Z,54.30
2019-05-01T09:40:14.408Z,58.33
2019-05-01T09:42:41.408Z,54.00
2019-05-01T09:45:08.537Z,54.18
2019-05-01T09:47:35.564Z,59.50
2019-05-01T09:50:04.519Z,58.48
2019-05-01T09:52:49.929Z,56.60
2019-05-01T09:55:22.997Z,53.75
2019-05-01T09:57:47.063Z,54.60
2019-05-01T10:00:24.326Z,53.20
2019-05-01T10:02:54.477Z,53.28
2019-05-01T10:05:28.648Z,51.95
2019-05-01T10:07:48.851Z,52.58
2019-05-01T10:10:16.589Z,54.18
2019-05-01T10:12:47.100Z,53.87
2019-05-01T10:15:12.140Z,52.53
2019-05-01T10:17:39.087Z,51.98
2019-05-01T10:20:06.529Z,52.43
2019-05-01T10:22:37.468Z,53.60
2019-05-01T10:25:08.473Z,50.80
2019-05-01T10:27:37.427Z,48.63
2019-05-01T10:30:19.308Z,49.58
2019-05-01T10:32:57.787Z,50.67
2019-05-01T10:35:25.243Z,51.28
2019-05-01T10:37:52.282Z,53.17
2019-05-01T10:40:19.039Z,51.77
2019-05-01T10:42:45.820Z,51.13
2019-05-01T10:45:12.661Z,48.33
2019-05-01T10:47:39.476Z,48.68
2019-05-01T10:50:08.556Z,49.90
2019-05-01T10:52:35.217Z,50.05
2019-05-01T10:55:02.694Z,48.50
2019-05-01T10:57:29.735Z,47.50
2019-05-01T10:59:56.681Z,49.35
2019-05-01T11:02:23.174Z,49.70
2019-05-01T11:04:49.766Z,49.05
2019-05-01T11:07:18.546Z,49.53
2019-05-01T11:09:47.299Z,52.03
2019-05-01T11:12:14.260Z,52.00
2019-05-01T11:14:41.320Z,53.05
2019-05-01T11:17:08.264Z,51.58
2019-05-01T11:19:35.959Z,52.03
2019-05-01T11:22:02.754Z,50.58
2019-05-01T11:24:29.232Z,50.12
2019-05-01T11:26:55.893Z,48.42
2019-05-01T11:29:22.646Z,46.90
2019-05-01T11:31:54.141Z,52.25
2019-05-01T11:34:33.881Z,51.28
2019-05-01T11:37:03.503Z,50.88
2019-05-01T11:39:35.917Z,46.33
2019-05-01T11:42:02.924Z,52.67
2019-05-01T11:44:29.753Z,49.15
2019-05-01T11:46:56.661Z,49.98
2019-05-01T11:49:23.569Z,50.92
2019-05-01T11:51:50.400Z,48.80
2019-05-01T11:54:16.919Z,49.00
2019-05-01T11:56:43.543Z,47.23
2019-05-01T11:59:10.657Z,44.67
2019-05-01T12:01:37.762Z,47.40
2019-05-01T12:04:04.394Z,49.53
2019-05-01T12:06:31.395Z,48.13
2019-05-01T12:08:57.977Z,51.73
2019-05-01T12:11:26.504Z,51.08
2019-05-01T12:13:53.227Z,51.55
2019-05-01T12:16:24.627Z,53.08
2019-05-01T12:18:51.258Z,49.60
2019-05-01T12:21:17.742Z,51.83
2019-05-01T12:23:44.302Z,51.48
2019-05-01T12:26:11.094Z,50.73
2019-05-01T12:28:37.946Z,52.30
2019-05-01T12:31:04.516Z,52.83
2019-05-01T12:33:31.416Z,50.90
2019-05-01T12:36:00.105Z,52.08
2019-05-01T12:38:26.567Z,53.00
2019-05-01T12:41:11.730Z,51.98
2019-05-01T12:43:38.657Z,50.58
2019-05-01T12:46:05.419Z,51.50
2019-05-01T12:48:32.009Z,50.75
2019-05-01T12:50:58.533Z,50.70
2019-05-01T12:53:29.918Z,54.70
2019-05-01T12:56:04.308Z,53.80
2019-05-01T12:58:30.979Z,54.65
2019-05-01T13:00:57.647Z,52.08
2019-05-01T13:03:24.263Z,52.05
2019-05-01T13:05:50.926Z,52.20
2019-05-01T13:08:17.447Z,54.35
2019-05-01T13:10:44.230Z,51.42
2019-05-01T13:13:11.384Z,50.23
2019-05-01T13:15:38.481Z,50.92
2019-05-01T13:18:05.510Z,50.60
2019-05-01T13:20:32.230Z,49.63
2019-05-01T13:22:59.111Z,52.15
2019-05-01T13:25:25.838Z,50.20
2019-05-01T13:27:54.416Z,49.10
2019-05-01T13:30:23.034Z,49.05
2019-05-01T13:32:51.380Z,48.00
2019-05-01T13:35:18.030Z,50.80
2019-05-01T13:37:45.000Z,51.18
2019-05-01T13:40:13.957Z,49.27
2019-05-01T13:42:40.505Z,47.65
2019-05-01T13:45:08.002Z,44.83
2019-05-01T13:47:34.696Z,44.83
2019-05-01T13:50:01.648Z,45.67
2019-05-01T13:52:28.459Z,46.60
2019-05-01T13:54:55.546Z,45.83
2019-05-01T13:57:22.228Z,44.95
2019-05-01T13:59:48.752Z,47.40
2019-05-01T14:02:15.625Z,46.20
2019-05-01T14:04:43.985Z,44.00
2019-05-01T14:07:16.772Z,46.05
2019-05-01T14:09:40.401Z,46.88
2019-05-01T14:12:07.246Z,46.85
2019-05-01T14:14:33.957Z,46.77
2019-05-01T14:17:01.729Z,46.48
2019-05-01T14:19:28.739Z,47.03
2019-05-01T14:22:14.355Z,46.65
2019-05-01T14:24:51.949Z,43.90
2019-05-01T14:27:18.664Z,43.23
2019-05-01T14:29:45.403Z,42.60
2019-05-01T14:32:12.369Z,41.92
2019-05-01T14:34:39.579Z,43.98
2019-05-01T14:37:06.499Z,41.02
2019-05-01T14:39:33.471Z,40.10
2019-05-01T14:42:00.526Z,40.45
2019-05-01T14:44:36.606Z,37.60
2019-05-01T14:46:57.236Z,39.33
2019-05-01T14:49:23.875Z,38.42
2019-05-01T14:51:50.601Z,38.88
2019-05-01T14:54:17.600Z,38.80
2019-05-01T14:56:44.328Z,38.45
2019-05-01T14:59:10.949Z,38.98
2019-05-01T15:01:37.868Z,35.43
2019-05-01T15:04:04.711Z,34.60
2019-05-01T15:06:31.852Z,32.00
2019-05-01T15:08:59.807Z,30.80
2019-05-01T15:11:26.827Z,32.25
2019-05-01T15:14:05.066Z,30.65
2019-05-01T15:16:37.019Z,30.35
2019-05-01T15:19:06.150Z,31.93
2019-05-01T15:21:32.851Z,29.23
2019-05-01T15:23:59.690Z,29.57
2019-05-01T15:26:26.478Z,27.93
2019-05-01T15:28:53.409Z,27.65
2019-05-01T15:31:20.809Z,25.70
2019-05-01T15:33:47.811Z,25.30
2019-05-01T15:36:14.600Z,26.30
2019-05-01T15:38:41.721Z,25.70
2019-05-01T15:41:22.673Z,25.20
2019-05-01T15:44:03.719Z,28.85
2019-05-01T15:46:30.834Z,24.65
2019-05-01T15:48:57.586Z,26.02
2019-05-01T15:52:11.913Z,28.38
2019-05-01T15:54:11.925Z,26.87
2019-05-01T15:56:43.057Z,26.95
2019-05-01T15:59:12.868Z,26.82
2019-05-01T16:01:43.347Z,26.57
2019-05-01T16:04:10.181Z,25.62
2019-05-01T16:06:36.994Z,26.60
2019-05-01T16:09:05.657Z,27.27
2019-05-01T16:11:43.780Z,26.60
2019-05-01T16:14:10.718Z,27.15
2019-05-01T16:16:37.524Z,27.32
2019-05-01T16:19:04.417Z,26.05
2019-05-01T16:21:32.068Z,27.52
2019-05-01T16:23:59.648Z,27.17
2019-05-01T16:26:27.603Z,24.95
2019-05-01T16:28:54.933Z,26.42
2019-05-01T16:31:22.020Z,27.40
2019-05-01T16:33:49.452Z,26.35
2019-05-01T16:36:16.852Z,28.52
2019-05-01T16:39:01.059Z,27.93
2019-05-01T16:41:31.283Z,27.90
2019-05-01T16:43:58.453Z,28.62
2019-05-01T16:46:25.798Z,28.12
2019-05-01T16:48:52.801Z,32.17
2019-05-01T16:51:20.279Z,30.90
2019-05-01T16:53:47.214Z,34.10
2019-05-01T16:56:14.465Z,28.62
2019-05-01T16:58:41.551Z,27.87
2019-05-01T17:01:10.518Z,26.52
2019-05-01T17:03:57.429Z,26.55
2019-05-01T17:06:41.405Z,28.07
2019-05-01T17:09:17.132Z,27.60
2019-05-01T17:11:44.207Z,30.02
2019-05-01T17:14:11.495Z,28.77
2019-05-01T17:16:38.449Z,28.73
2019-05-01T17:19:05.634Z,29.50
2019-05-01T17:21:32.869Z,29.52
2019-05-01T17:24:17.546Z,27.32
2019-05-01T17:26:44.578Z,28.52
2019-05-01T17:29:11.719Z,29.45
2019-05-01T17:31:40.279Z,30.80
2019-05-01T17:34:09.703Z,33.70
2019-05-01T17:39:53.601Z,31.95
2019-05-01T17:42:20.830Z,31.93
2019-05-01T17:44:47.762Z,33.80
2019-05-01T17:47:17.864Z,32.17
2019-05-01T17:49:44.945Z,31.30
2019-05-01T17:52:13.331Z,32.78
2019-05-01T17:54:40.462Z,31.62
2019-05-01T17:57:09.045Z,32.15
2019-05-01T17:59:36.203Z,35.08
2019-05-01T18:02:21.730Z,34.00
2019-05-01T18:04:53.321Z,33.35
2019-05-01T18:07:21.215Z,35.13
2019-05-01T18:09:51.307Z,34.03
2019-05-01T18:12:16.744Z,31.68
2019-05-01T18:14:43.508Z,35.20
2019-05-01T18:17:10.949Z,33.30
2019-05-01T18:19:37.946Z,32.13
2019-05-01T18:22:06.474Z,33.67
2019-05-01T18:24:44.354Z,31.68
2019-05-01T18:27:18.618Z,32.08
2019-05-01T18:29:44.845Z,32.38
2019-05-01T18:32:14.065Z,33.20
2019-05-01T18:34:41.098Z,31.80
2019-05-01T18:37:09.976Z,34.27
2019-05-01T18:39:44.866Z,34.25
2019-05-01T18:42:13.666Z,34.00
2019-05-01T18:44:42.606Z,34.40
2019-05-01T18:47:09.202Z,38.15
2019-05-01T18:49:39.704Z,34.38
2019-05-01T18:52:07.756Z,32.58
2019-05-01T18:54:36.320Z,32.60
2019-05-01T18:57:04.435Z,31.93
2019-05-01T18:59:31.405Z,33.42
2019-05-01T19:02:01.234Z,33.75
2019-05-01T19:04:27.833Z,32.70
2019-05-01T19:06:54.798Z,34.08
2019-05-01T19:09:29.831Z,34.55
2019-05-01T19:11:51.564Z,33.85
2019-05-01T19:14:18.933Z,34.15
2019-05-01T19:16:47.144Z,34.90
2019-05-01T19:19:15.366Z,35.13
2019-05-01T19:21:46.429Z,36.05
2019-05-01T19:24:13.805Z,34.38
2019-05-01T19:26:42.689Z,36.40
2019-05-01T19:29:10.345Z,35.80
2019-05-01T19:31:37.393Z,36.45
2019-05-01T19:34:05.026Z,36.90
2019-05-01T19:36:33.424Z,36.42
2019-05-01T19:39:00.806Z,37.55
2019-05-01T19:41:36.128Z,36.17
2019-05-01T19:44:04.142Z,36.42
2019-05-01T19:46:30.913Z,37.08
2019-05-01T19:48:59.845Z,36.30
2019-05-01T19:51:26.749Z,37.30
2019-05-01T19:53:54.000Z,38.23
2019-05-01T19:56:21.543Z,36.73
2019-05-01T19:58:50.044Z,38.38
2019-05-01T20:01:17.252Z,38.90
2019-05-01T20:03:44.593Z,37.95
2019-05-01T20:06:12.076Z,39.92
2019-05-01T20:08:41.196Z,39.85
2019-05-01T20:11:09.770Z,42.35
2019-05-01T20:13:38.967Z,39.73
2019-05-01T20:16:07.781Z,42.03
2019-05-01T20:18:37.580Z,42.17
2019-05-01T20:21:06.470Z,40.15
2019-05-01T20:23:33.624Z,41.33
2019-05-01T20:26:01.352Z,41.13
2019-05-01T20:28:28.497Z,43.30
2019-05-01T20:30:55.889Z,42.03
2019-05-01T20:33:23.026Z,41.73
2019-05-01T20:35:50.278Z,42.48
2019-05-01T20:38:17.653Z,41.48
2019-05-01T20:40:44.958Z,43.33
2019-05-01T20:43:12.047Z,41.42
2019-05-01T20:45:39.166Z,41.88
2019-05-01T20:48:06.443Z,41.02
2019-05-01T20:50:33.363Z,43.38
2019-05-01T20:53:00.539Z,40.80
2019-05-01T20:55:27.288Z,41.55
2019-05-01T20:57:56.351Z,41.63
2019-05-01T21:00:25.345Z,40.60
2019-05-01T21:02:57.716Z,40.83
2019-05-01T21:05:35.559Z,41.37
2019-05-01T21:08:11.767Z,40.45
2019-05-01T21:10:50.571Z,40.52
2019-05-01T21:13:17.802Z,39.50
2019-05-01T21:15:47.279Z,41.48
2019-05-01T21:18:16.181Z,43.63
2019-05-01T21:20:47.211Z,40.73
2019-05-01T21:23:30.400Z,43.98
2019-05-01T21:25:57.463Z,43.40
2019-05-01T21:28:24.382Z,42.55
2019-05-01T21:30:51.838Z,43.87
2019-05-01T21:33:50.633Z,42.05
2019-05-01T21:36:08.641Z,41.18
2019-05-01T21:38:35.079Z,41.48
2019-05-01T21:41:02.795Z,42.53
2019-05-01T21:43:33.263Z,41.80
2019-05-01T21:45:58.934Z,41.65
2019-05-01T21:48:27.795Z,42.23
2019-05-01T21:50:58.002Z,41.00
2019-05-01T21:53:23.980Z,42.70
2019-05-01T21:55:51.353Z,42.65
2019-05-01T21:58:21.030Z,43.85
2019-05-01T22:00:49.922Z,43.28
2019-05-01T22:03:21.467Z,42.80
2019-05-01T22:05:48.025Z,43.38
2019-05-01T22:08:14.851Z,46.00
2019-05-01T22:10:51.687Z,48.23
2019-05-01T22:13:11.638Z,49.48
2019-05-01T22:15:47.113Z,47.13
2019-05-01T22:18:17.300Z,44.83
2019-05-01T22:20:58.582Z,44.18
2019-05-01T22:23:27.451Z,45.52
2019-05-01T22:25:56.203Z,42.58
2019-05-01T22:28:25.948Z,44.80
2019-05-01T22:31:06.554Z,44.20
2019-05-01T22:33:34.470Z,48.40
2019-05-01T22:36:01.458Z,48.45
2019-05-01T22:38:28.370Z,47.27
2019-05-01T22:41:06.145Z,48.45
2019-05-01T22:43:26.080Z,48.42
2019-05-01T22:45:56.190Z,46.98
2019-05-01T22:48:21.834Z,46.48
2019-05-01T22:50:51.204Z,47.10
2019-05-01T22:53:17.920Z,48.33
2019-05-01T22:55:44.862Z,46.60
2019-05-01T22:58:12.588Z,45.15
2019-05-01T23:00:41.553Z,44.48
2019-05-01T23:03:19.153Z,44.70
2019-05-01T23:05:46.045Z,45.43
2019-05-01T23:08:12.905Z,44.03
2019-05-01T23:10:41.983Z,45.30
2019-05-01T23:13:08.776Z,44.95
2019-05-01T23:15:35.648Z,46.53
2019-05-01T23:18:02.871Z,44.85
2019-05-01T23:20:29.781Z,45.48
2019-05-01T23:22:56.674Z,45.30
2019-05-01T23:25:23.546Z,43.45
2019-05-01T23:27:50.310Z,46.08
2019-05-01T23:30:19.141Z,44.42
2019-05-01T23:32:45.640Z,42.15
2019-05-01T23:35:12.445Z,43.35
2019-05-01T23:37:39.183Z,43.60
2019-05-01T23:40:06.310Z,43.87
2019-05-01T23:42:33.223Z,43.58
2019-05-01T23:45:00.038Z,44.35
2019-05-01T23:47:26.748Z,43.50
2019-05-01T23:49:53.915Z,44.20
2019-05-01T23:52:20.725Z,42.58
2019-05-01T23:54:48.744Z,45.55
2019-05-01T23:57:18.893Z,41.73
2019-05-01T23:59:45.151Z,43.87
